KABY

Southwest Georgia Regional Airport

Albany, Georgia, USA
METAR KABY 161653Z 14007KT 120V180 10SM BKN035 BKN060 31/23 A3019 RMK AO2 SLP221 T03060228
Observed Flight Rules
Aug-16 @ 16:53 UTC (43 minutes ago) Visual Flight Rules
Wind Visibility Clouds
140° at 7 knots 10 miles
  • Broken at 3,500' AGL
  • Broken at 6,000' AGL
Temperatures Readings
Current 31°C / 88°F
Dewpoint 23°C / 73°F
Humidity 62%
Altimeter 30.19" Hg
Pressure 1022.1 hPa
Elevation 58
METAR KABY 161653Z 14007KT 120V180 10SM BKN035 BKN060 31/23 A3019 RMK AO2 SLP221 T03060228
Observed Flight Rules
Aug-16 @ 16:53 UTC
(43 minutes ago)
VFR
Wind Visibility
140° at 7 knots 10 miles
Clouds
  • Broken at 3,500' AGL
  • Broken at 6,000' AGL
Temperature Dewpoint
31°C / 88°F 23°C / 73°F
Humidity Altimeter Pressure
62% 30.19" Hg 1022.1 hPa